Aviation Digital Data Service (ADDS)

Output produced by METARs form (0447 UTC 24 August 2016)
found at http://aviationweather.gov/adds/metars/
 
KLBE 232320Z 2400/2424 VRB03KT P6SM SKC 
     FM241500 22010KT P6SM BKN200